Time;durP1;ratioP1;P1;durP2;ratioP2;P2;SDS_P1;SDS_P2;PMS_P1;PMS_P2;Temp;Humidity;BMP_temperature;BMP_pressure;BME280_temperature;BME280_humidity;BME280_pressure;Samples;Min_cycle;Max_cycle;Signal;HPM_P1;HPM_P2
2022/07/31 00:00:11;;;;;;;3.50;2.45;;;;;;;27.62;42.62;101178.84;4966789;29;20102;-81
2022/07/31 00:02:37;;;;;;;3.28;2.38;;;;;;;26.99;42.63;101070.38;4966525;28;20147;-80
2022/07/31 00:05:04;;;;;;;6.68;2.80;;;;;;;27.64;41.96;101165.78;4981435;28;20063;-81
2022/07/31 00:07:31;;;;;;;3.15;2.30;;;;;;;27.34;41.51;101116.81;4970655;29;20069;-81
2022/07/31 00:09:58;;;;;;;2.45;2.25;;;;;;;27.49;41.39;101133.53;4955316;29;20047;-81
2022/07/31 00:12:24;;;;;;;3.50;2.47;;;;;;;27.65;40.99;101163.91;4955011;29;20353;-81
2022/07/31 00:14:51;;;;;;;2.47;2.28;;;;;;;26.47;41.08;100964.75;4954800;29;20081;-80
2022/07/31 00:17:18;;;;;;;4.22;2.42;;;;;;;27.75;41.39;101166.88;4954725;29;20052;-81
2022/07/31 00:19:45;;;;;;;2.88;2.33;;;;;;;27.52;41.43;101128.69;4954366;29;20074;-82
2022/07/31 00:22:12;;;;;;;3.17;1.85;;;;;;;27.71;41.56;101163.78;4955637;28;20386;-82
2022/07/31 00:24:39;;;;;;;3.08;2.25;;;;;;;27.65;41.57;101155.72;4956023;29;20493;-82
2022/07/31 00:27:06;;;;;;;4.15;2.38;;;;;;;27.70;41.58;101155.84;4957545;29;20051;-82
2022/07/31 00:29:33;;;;;;;4.28;2.30;;;;;;;27.51;41.70;101132.47;4972240;29;20047;-83
2022/07/31 00:31:59;;;;;;;3.92;2.15;;;;;;;27.24;41.76;101101.03;4971449;28;20047;-81
2022/07/31 00:34:26;;;;;;;2.53;2.33;;;;;;;26.69;42.03;101013.25;4958522;29;20109;-81
2022/07/31 00:36:53;;;;;;;1.92;1.80;;;;;;;27.30;41.95;101110.16;4970427;28;20051;-81
2022/07/31 00:39:19;;;;;;;3.13;2.15;;;;;;;27.18;41.80;101095.66;4954526;29;20062;-81
2022/07/31 00:41:48;;;;;;;4.93;2.28;;;;;;;27.48;42.17;101144.69;4954144;29;20043;-82
2022/07/31 00:44:15;;;;;;;3.08;2.60;;;;;;;27.55;42.19;101152.75;4954353;29;20052;-81
2022/07/31 00:46:43;;;;;;;4.20;2.03;;;;;;;27.59;42.28;101145.75;4955178;28;20493;-81
2022/07/31 00:49:10;;;;;;;3.25;2.53;;;;;;;27.53;42.42;101133.91;4954114;29;20055;-82
2022/07/31 00:51:38;;;;;;;3.38;2.30;;;;;;;27.57;42.56;101143.25;4954038;29;20051;-81
2022/07/31 00:54:07;;;;;;;5.10;2.47;;;;;;;27.45;42.43;101140.53;4954120;29;20055;-81
2022/07/31 00:56:34;;;;;;;5.05;2.20;;;;;;;27.36;42.93;101130.22;4954684;28;20062;-81
2022/07/31 00:59:01;;;;;;;4.72;3.22;;;;;;;27.15;42.72;101096.13;4953771;29;20051;-82
2022/07/31 01:01:29;;;;;;;3.65;2.63;;;;;;;27.29;43.27;101124.88;4955162;29;20075;-82
2022/07/31 01:03:56;;;;;;;7.65;2.70;;;;;;;27.19;42.89;101108.28;4953586;29;20102;-81
2022/07/31 01:06:23;;;;;;;2.63;2.38;;;;;;;27.21;42.89;101109.69;4969970;28;20494;-81
2022/07/31 01:08:50;;;;;;;4.82;2.80;;;;;;;27.03;43.40;101086.03;4953495;29;20138;-81
2022/07/31 01:11:49;;;;;;;6.15;2.63;;;;;;;27.15;43.37;101101.59;4953584;29;20047;-80
2022/07/31 01:14:20;;;;;;;2.88;2.67;;;;;;;27.23;43.63;101120.34;4969689;28;20051;-81
2022/07/31 01:16:50;;;;;;;4.97;3.22;;;;;;;27.19;43.68;101119.19;4953153;29;20059;-84
2022/07/31 01:19:31;;;;;;;3.42;2.33;;;;;;;27.12;43.67;101102.06;4953370;29;20051;-82
2022/07/31 01:22:36;;;;;;;4.60;3.17;;;;;;;27.34;43.93;101138.63;4955003;28;20051;-82
2022/07/31 01:25:21;;;;;;;4.68;2.38;;;;;;;27.33;44.04;101138.84;4953917;29;20121;-81
2022/07/31 01:28:11;;;;;;;4.47;2.60;;;;;;;27.34;43.84;101130.44;4953736;29;20043;-81
2022/07/31 01:30:40;;;;;;;4.13;2.90;;;;;;;27.32;43.89;101135.28;4953152;29;20054;-80
2022/07/31 01:33:12;;;;;;;4.47;2.55;;;;;;;27.37;43.97;101129.97;4953323;29;20133;-81
2022/07/31 01:35:40;;;;;;;;;;;;;;;27.42;43.75;101130.09;4953873;29;20089;-80
2022/07/31 01:38:14;;;;;;;5.82;2.45;;;;;;;27.39;43.95;101125.13;4969646;28;20151;-79
2022/07/31 01:40:45;;;;;;;5.40;2.95;;;;;;;26.88;43.64;101057.59;4954241;28;20047;-81
2022/07/31 01:43:18;;;;;;;3.75;2.65;;;;;;;27.01;44.47;101096.34;4953284;28;20054;-83
2022/07/31 01:45:49;;;;;;;3.00;2.80;;;;;;;27.00;44.49;101094.69;4953326;29;20075;-82
2022/07/31 01:48:17;;;;;;;3.65;2.90;;;;;;;27.13;44.81;101142.69;4954752;28;20055;-81
2022/07/31 01:50:46;;;;;;;3.30;3.00;;;;;;;26.55;44.76;101053.47;4952964;29;20047;-82
2022/07/31 01:53:18;;;;;;;5.03;2.70;;;;;;;26.99;44.95;101120.28;4953004;29;20394;-81
2022/07/31 01:55:46;;;;;;;3.15;2.95;;;;;;;26.93;44.46;101104.84;4954203;28;20114;-82
2022/07/31 01:58:34;;;;;;;5.75;2.70;;;;;;;26.96;44.91;101114.47;4953156;29;20445;-81
2022/07/31 02:01:02;;;;;;;3.50;2.90;;;;;;;26.86;44.93;101104.13;4953931;28;20525;-82
2022/07/31 02:03:30;;;;;;;4.47;3.08;;;;;;;26.83;45.07;101099.16;4949661;29;20055;-83
2022/07/31 02:06:14;;;;;;;3.13;2.78;;;;;;;26.87;44.98;101100.34;4965313;28;20129;-81
2022/07/31 02:08:45;;;;;;;3.00;2.70;;;;;;;27.03;44.96;101129.63;4950842;29;20449;-81
2022/07/31 02:11:15;;;;;;;3.53;3.20;;;;;;;26.98;45.06;101140.41;4951417;29;20070;-83
2022/07/31 02:13:43;;;;;;;6.47;2.72;;;;;;;26.69;45.44;101092.22;4953422;29;20047;-82
2022/07/31 02:16:11;;;;;;;3.45;2.78;;;;;;;26.92;45.38;101135.91;4962094;29;20059;-82
2022/07/31 02:18:40;;;;;;;5.07;2.88;;;;;;;26.22;45.06;101028.34;4963522;29;20058;-84
2022/07/31 02:21:07;;;;;;;3.38;3.17;;;;;;;26.73;45.13;101105.16;4963914;29;20059;-81
2022/07/31 02:23:36;;;;;;;2.97;2.78;;;;;;;26.77;45.12;101110.97;4980485;28;20059;-81
2022/07/31 02:26:05;;;;;;;3.08;2.78;;;;;;;26.92;44.78;101124.16;4965034;29;20079;-83
2022/07/31 02:28:36;;;;;;;7.30;3.00;;;;;;;27.03;45.06;101134.25;4953440;28;20063;-82
2022/07/31 02:31:09;;;;;;;3.92;3.03;;;;;;;27.02;45.05;101133.44;4949603;29;20151;-83
2022/07/31 02:33:37;;;;;;;3.20;2.90;;;;;;;26.98;44.79;101134.94;4949711;29;20043;-83
2022/07/31 02:36:05;;;;;;;2.67;2.42;;;;;;;26.88;44.80;101109.34;4949526;29;20114;-81
2022/07/31 02:38:34;;;;;;;3.03;2.72;;;;;;;26.92;45.14;101113.25;4950014;29;20083;-82
2022/07/31 02:41:03;;;;;;;4.25;2.60;;;;;;;26.94;45.00;101122.84;4949897;29;20079;-81
2022/07/31 02:43:33;;;;;;;7.93;3.00;;;;;;;26.82;44.86;101100.19;4949579;29;20051;-82
2022/07/31 02:46:01;;;;;;;3.15;2.85;;;;;;;26.80;44.96;101105.06;4951192;28;20052;-81
2022/07/31 02:48:28;;;;;;;5.20;2.53;;;;;;;26.73;44.81;101101.59;4949132;29;20055;-81
2022/07/31 02:50:56;;;;;;;3.08;2.58;;;;;;;25.81;45.21;100944.75;4949811;29;20047;-80
2022/07/31 02:53:23;;;;;;;2.92;2.70;;;;;;;26.86;45.14;101137.63;4949322;29;20521;-81
2022/07/31 02:55:51;;;;;;;3.72;2.80;;;;;;;26.98;45.16;101134.94;4951773;28;20054;-81
2022/07/31 02:58:17;;;;;;;3.20;2.90;;;;;;;26.54;45.62;101093.47;4953213;29;20107;-81
2022/07/31 03:00:44;;;;;;;5.45;3.33;;;;;;;26.60;46.10;101149.75;4953316;29;20059;-82
2022/07/31 03:03:11;;;;;;;5.15;3.25;;;;;;;26.06;46.87;101110.59;4952809;29;20067;-79
2022/07/31 03:05:38;;;;;;;3.95;3.65;;;;;;;26.08;47.57;101143.84;4952961;29;20099;-81
2022/07/31 03:08:05;;;;;;;3.53;3.22;;;;;;;26.21;47.76;101165.47;4968512;28;20462;-81
2022/07/31 03:10:31;;;;;;;4.13;3.72;;;;;;;26.12;48.56;101185.88;4952996;29;20478;-82
2022/07/31 03:12:59;;;;;;;7.00;5.30;;;;;;;26.00;49.66;101171.34;4953405;29;20364;-82
2022/07/31 03:15:29;;;;;;;5.78;5.18;;;;;;;25.87;50.30;101182.34;4954354;28;20043;-82
2022/07/31 03:17:57;;;;;;;7.32;6.20;;;;;;;25.11;51.23;101091.78;4953084;29;20051;-84
2022/07/31 03:20:25;;;;;;;7.55;6.10;;;;;;;25.25;51.49;101131.41;4952772;29;20107;-83
2022/07/31 03:22:52;;;;;;;7.28;5.95;;;;;;;25.23;51.53;101090.03;4952797;29;20043;-81
2022/07/31 03:25:19;;;;;;;7.95;7.15;;;;;;;25.62;51.81;101136.94;4952840;29;20118;-81
2022/07/31 03:27:49;;;;;;;10.93;6.97;;;;;;;25.58;52.25;101158.31;4952814;29;20459;-82
2022/07/31 03:30:25;;;;;;;8.70;7.80;;;;;;;25.47;53.10;101169.06;4953104;29;20067;-81
2022/07/31 03:32:54;;;;;;;11.02;8.13;;;;;;;25.33;53.17;101160.19;4954348;28;20055;-81
2022/07/31 03:35:21;;;;;;;9.27;8.38;;;;;;;24.77;53.74;101069.44;4952846;29;20051;-82
2022/07/31 03:37:48;;;;;;;12.15;7.18;;;;;;;25.42;54.00;101187.94;4952904;29;20055;-81
2022/07/31 03:40:15;;;;;;;8.10;6.78;;;;;;;25.37;54.22;101177.72;4952999;29;20091;-81
2022/07/31 03:42:42;;;;;;;8.32;6.93;;;;;;;25.42;53.96;101175.19;4952503;29;20051;-81
2022/07/31 03:45:11;;;;;;;9.07;8.15;;;;;;;25.41;54.82;101184.38;4952771;29;20047;-81
2022/07/31 03:47:38;;;;;;;12.75;7.35;;;;;;;25.41;54.59;101183.53;4952281;29;20059;-81
2022/07/31 03:50:07;;;;;;;12.95;7.80;;;;;;;24.86;54.64;101075.47;4952811;28;20450;-80
2022/07/31 03:52:34;;;;;;;10.43;7.47;;;;;;;25.12;54.72;101128.75;4952796;29;20051;-83
2022/07/31 03:55:01;;;;;;;9.05;7.32;;;;;;;25.44;55.00;101173.06;4952964;29;20047;-79
2022/07/31 03:57:29;;;;;;;10.73;6.40;;;;;;;25.55;54.69;101175.06;4953980;28;20333;-82
2022/07/31 04:00:01;;;;;;;9.68;6.53;;;;;;;25.52;54.59;101177.41;4952673;29;20077;-82
2022/07/31 04:02:29;;;;;;;7.85;7.10;;;;;;;25.52;54.60;101191.81;4953454;28;20076;-82
2022/07/31 04:04:58;;;;;;;8.02;7.25;;;;;;;25.12;54.71;101121.44;4967187;28;20498;-82
2022/07/31 04:07:25;;;;;;;8.90;7.70;;;;;;;25.46;54.83;101175.56;4949809;28;20059;-80
2022/07/31 04:09:52;;;;;;;9.80;7.75;;;;;;;24.95;54.79;101093.13;4951130;29;20075;-82
2022/07/31 04:12:19;;;;;;;11.13;7.32;;;;;;;25.30;55.17;101155.19;4951239;29;20141;-81
2022/07/31 04:14:46;;;;;;;9.10;8.10;;;;;;;25.44;55.31;101185.81;4951336;29;20043;-82
2022/07/31 04:17:12;;;;;;;10.30;7.78;;;;;;;25.38;55.43;101188.34;4950823;29;20055;-82
2022/07/31 04:19:39;;;;;;;7.90;7.03;;;;;;;25.30;55.34;101164.19;4951492;29;20146;-81
2022/07/31 04:22:06;;;;;;;10.25;7.45;;;;;;;24.78;55.41;101087.41;4950551;29;20121;-81
2022/07/31 04:24:34;;;;;;;8.20;7.40;;;;;;;25.25;55.16;101168.63;4951453;29;20078;-82
2022/07/31 04:27:01;;;;;;;11.15;6.75;;;;;;;25.42;55.32;101198.81;4950376;29;20051;-82
2022/07/31 04:29:28;;;;;;;7.50;5.78;;;;;;;25.40;54.87;101204.47;4951796;28;20051;-81
2022/07/31 04:31:55;;;;;;;5.65;5.10;;;;;;;25.41;54.87;101203.38;4950418;29;20052;-81
2022/07/31 04:34:22;;;;;;;11.25;4.85;;;;;;;25.39;54.29;101194.66;4956770;28;20250;-82
2022/07/31 04:36:49;;;;;;;5.03;4.53;;;;;;;25.35;53.68;101185.25;4952316;29;20063;-81
2022/07/31 04:39:15;;;;;;;4.97;3.97;;;;;;;25.15;53.11;101148.16;4955422;29;20090;-81
2022/07/31 04:41:43;;;;;;;4.25;3.95;;;;;;;25.41;52.73;101197.94;4952283;29;20106;-82
2022/07/31 04:44:10;;;;;;;5.05;3.95;;;;;;;25.10;52.30;101150.72;4952732;29;20055;-81
2022/07/31 04:46:37;;;;;;;4.85;3.97;;;;;;;24.85;52.07;101107.19;4951502;29;20043;-81
2022/07/31 04:49:03;;;;;;;5.60;4.05;;;;;;;24.79;52.07;101083.66;4950948;29;20061;-80
2022/07/31 04:51:30;;;;;;;4.20;3.40;;;;;;;25.26;51.43;101130.34;4951038;29;20061;-81
2022/07/31 04:53:57;;;;;;;4.60;3.80;;;;;;;25.49;51.56;101173.25;4950615;29;20207;-81
2022/07/31 04:56:34;;;;;;;5.55;3.65;;;;;;;25.52;51.24;101180.13;4950772;29;20568;-81
2022/07/31 04:59:08;;;;;;;3.60;3.30;;;;;;;25.28;49.87;101120.09;4951351;28;20311;-80
2022/07/31 05:01:34;;;;;;;3.60;2.92;;;;;;;25.71;49.14;101173.69;4950924;28;20094;-82
2022/07/31 05:04:02;;;;;;;3.72;2.97;;;;;;;25.71;49.11;101176.41;4943177;28;20044;-80
2022/07/31 05:06:40;;;;;;;3.17;2.88;;;;;;;25.89;48.63;101193.84;4939787;28;20066;-80
2022/07/31 05:09:09;;;;;;;4.38;2.97;;;;;;;25.44;48.72;101112.44;4936075;28;20048;-80
2022/07/31 05:11:45;;;;;;;4.40;3.08;;;;;;;25.95;48.68;101198.41;4939896;28;20067;-82
2022/07/31 05:14:14;;;;;;;3.03;2.80;;;;;;;26.03;48.76;101208.97;4951856;28;20070;-81
2022/07/31 05:16:41;;;;;;;3.25;2.72;;;;;;;26.06;48.67;101204.97;4949668;28;20102;-82
2022/07/31 05:19:08;;;;;;;3.95;3.08;;;;;;;25.70;48.47;101144.81;4932757;29;20071;-81
2022/07/31 05:21:41;;;;;;;5.47;3.08;;;;;;;25.49;48.50;101099.03;4931365;29;20347;-81
2022/07/31 05:24:20;;;;;;;3.95;2.97;;;;;;;25.35;47.86;101071.94;4949258;29;20055;-82
2022/07/31 05:27:00;;;;;;;3.88;3.10;;;;;;;26.27;47.85;101203.72;4950858;29;20051;-82
2022/07/31 05:29:28;;;;;;;3.17;2.50;;;;;;;26.36;47.16;101211.38;4950339;29;20145;-81
2022/07/31 05:31:55;;;;;;;3.35;3.05;;;;;;;26.25;47.01;101179.44;4950479;29;20051;-80
2022/07/31 05:34:35;;;;;;;3.63;3.28;;;;;;;25.78;47.28;101111.91;4951230;28;20051;-80
2022/07/31 05:37:02;;;;;;;3.83;3.40;;;;;;;26.34;47.14;101199.03;4950689;29;20445;-81
2022/07/31 05:39:30;;;;;;;3.60;2.80;;;;;;;26.19;47.46;101189.34;4950130;29;20051;-81
2022/07/31 05:41:57;;;;;;;4.18;3.00;;;;;;;26.16;47.51;101183.50;4950110;29;20053;-82
2022/07/31 05:44:23;;;;;;;4.65;3.35;;;;;;;25.83;46.60;101130.28;4949775;29;20391;-81
2022/07/31 05:46:50;;;;;;;4.18;2.78;;;;;;;26.42;46.44;101207.72;4951355;28;20137;-80
2022/07/31 05:49:16;;;;;;;4.53;3.83;;;;;;;26.53;46.01;101208.91;4950236;29;20382;-81
2022/07/31 05:51:45;;;;;;;6.75;3.65;;;;;;;26.24;45.48;101145.13;4955992;28;20059;-81
2022/07/31 05:54:12;;;;;;;3.55;3.25;;;;;;;26.53;45.46;101187.13;4953720;28;20046;-81
2022/07/31 05:56:38;;;;;;;8.50;3.63;;;;;;;26.47;46.04;101176.28;4950298;28;20125;-81
2022/07/31 05:59:05;;;;;;;3.35;3.05;;;;;;;26.41;45.16;101158.97;4951286;28;20588;-82
2022/07/31 06:01:32;;;;;;;3.80;3.50;;;;;;;25.86;45.46;101070.00;4950909;29;20044;-81
2022/07/31 06:03:59;;;;;;;5.63;3.75;;;;;;;26.81;45.61;101215.66;4951999;29;20051;-81
2022/07/31 06:06:26;;;;;;;4.38;3.90;;;;;;;26.91;45.10;101221.38;4963819;29;20102;-84
2022/07/31 06:08:52;;;;;;;5.53;3.15;;;;;;;26.85;45.07;101200.53;4967586;29;20058;-83
2022/07/31 06:11:19;;;;;;;4.43;4.03;;;;;;;26.87;44.44;101176.63;4959064;29;20378;-81
2022/07/31 06:13:46;;;;;;;4.00;3.60;;;;;;;27.12;44.54;101213.78;4949539;29;20055;-81
2022/07/31 06:16:13;;;;;;;4.32;3.92;;;;;;;27.21;43.93;101209.69;4948936;29;20047;-81
2022/07/31 06:18:41;;;;;;;6.13;4.40;;;;;;;27.23;44.28;101208.38;4948902;29;20118;-83
2022/07/31 06:21:07;;;;;;;6.45;3.65;;;;;;;27.10;44.06;101180.50;4949339;29;20461;-81
2022/07/31 06:23:34;;;;;;;6.93;3.35;;;;;;;27.31;44.39;101220.88;4949343;29;20043;-82
2022/07/31 06:26:01;;;;;;;4.65;4.10;;;;;;;27.30;44.52;101223.81;4965717;28;20058;-82
2022/07/31 06:28:29;;;;;;;4.35;3.67;;;;;;;26.08;44.26;101007.00;4950113;29;20051;-81
2022/07/31 06:31:19;;;;;;;7.57;3.90;;;;;;;27.41;44.26;101221.13;4952693;28;20102;-81
2022/07/31 06:33:46;;;;;;;4.65;4.25;;;;;;;27.03;44.18;101156.06;4953592;29;20063;-82
2022/07/31 06:36:16;;;;;;;4.80;3.95;;;;;;;27.19;43.82;101158.16;4953671;29;20211;-82
2022/07/31 06:38:42;;;;;;;9.60;4.20;;;;;;;27.65;43.58;101221.19;4953090;29;20059;-81
2022/07/31 06:41:09;;;;;;;4.45;3.90;;;;;;;27.55;43.90;101202.69;4969934;28;20059;-82
2022/07/31 06:43:36;;;;;;;4.30;3.90;;;;;;;27.48;43.47;101178.25;4951950;29;20086;-82
2022/07/31 06:46:02;;;;;;;7.75;4.45;;;;;;;27.58;43.15;101183.09;4967972;28;20560;-83
2022/07/31 06:48:29;;;;;;;4.88;4.38;;;;;;;27.63;42.78;101180.50;4951801;29;20055;-81
2022/07/31 06:50:56;;;;;;;4.13;3.33;;;;;;;27.91;42.41;101212.59;4951434;29;20105;-82
2022/07/31 06:53:42;;;;;;;5.80;3.67;;;;;;;27.15;42.41;101074.34;4954863;29;20044;-82
2022/07/31 06:56:09;;;;;;;3.63;3.28;;;;;;;27.43;43.07;101129.03;4955110;29;20493;-81
2022/07/31 06:58:36;;;;;;;5.72;4.00;;;;;;;27.97;42.70;101205.34;4957079;29;20051;-82
2022/07/31 07:01:03;;;;;;;4.72;3.40;;;;;;;27.94;41.81;101180.41;4973079;28;20055;-80
2022/07/31 07:03:32;;;;;;;5.18;2.90;;;;;;;27.81;40.91;101146.81;4957593;29;20059;-80
2022/07/31 07:06:02;;;;;;;3.53;3.17;;;;;;;27.86;40.78;101157.06;4953687;29;20047;-79
2022/07/31 07:08:42;;;;;;;4.90;3.40;;;;;;;28.33;40.58;101220.63;4950404;28;20059;-81
2022/07/31 07:11:09;;;;;;;3.95;3.20;;;;;;;28.41;40.24;101224.88;4953084;28;20062;-81
2022/07/31 07:13:38;;;;;;;3.97;3.03;;;;;;;28.40;40.62;101223.22;4952381;29;20055;-81
2022/07/31 07:16:13;;;;;;;4.68;3.50;;;;;;;28.46;40.26;101218.72;4952521;29;20054;-81
2022/07/31 07:18:40;;;;;;;4.10;3.13;;;;;;;28.26;39.69;101176.22;4952090;29;20043;-81
2022/07/31 07:21:06;;;;;;;3.42;2.85;;;;;;;28.40;39.48;101198.66;4951691;29;20110;-82
2022/07/31 07:23:34;;;;;;;3.17;2.88;;;;;;;28.49;39.12;101188.19;4951951;29;20047;-81
2022/07/31 07:26:01;;;;;;;4.30;3.35;;;;;;;27.95;39.46;101103.78;4950614;29;20449;-81
2022/07/31 07:28:28;;;;;;;3.95;3.50;;;;;;;27.90;39.17;101093.59;4952666;28;20532;-82
2022/07/31 07:30:57;;;;;;;3.22;2.75;;;;;;;28.47;38.90;101161.16;4951969;29;20059;-81
2022/07/31 07:33:24;;;;;;;3.10;2.80;;;;;;;28.80;39.56;101221.59;4951456;29;20059;-82
2022/07/31 07:36:07;;;;;;;4.15;3.30;;;;;;;28.55;39.87;101187.25;4951835;29;20368;-81
2022/07/31 07:38:49;;;;;;;5.43;3.40;;;;;;;28.75;39.87;101231.34;4951677;29;20043;-80
2022/07/31 07:41:15;;;;;;;5.07;3.28;;;;;;;28.84;39.75;101220.06;4951070;28;20088;-81
2022/07/31 07:43:44;;;;;;;4.35;3.15;;;;;;;28.86;40.09;101226.09;4951473;29;20133;-82
2022/07/31 07:46:17;;;;;;;5.78;3.33;;;;;;;28.11;40.06;101110.41;4951460;29;20051;-80
2022/07/31 07:48:44;;;;;;;3.90;3.25;;;;;;;28.70;40.37;101187.53;4951724;29;20047;-82
2022/07/31 07:51:11;;;;;;;4.35;3.38;;;;;;;28.83;40.37;101200.06;4950929;29;20051;-81
2022/07/31 07:53:39;;;;;;;3.38;3.05;;;;;;;28.75;39.74;101171.25;4951611;29;20046;-81
2022/07/31 07:56:05;;;;;;;4.07;3.65;;;;;;;29.09;39.90;101215.09;4950937;29;20051;-80
2022/07/31 07:58:32;;;;;;;3.78;3.42;;;;;;;29.06;40.15;101195.59;4951115;29;20058;-80
2022/07/31 08:00:59;;;;;;;6.10;3.28;;;;;;;29.26;39.63;101201.47;4950827;29;20047;-81
2022/07/31 08:03:27;;;;;;;4.97;3.17;;;;;;;28.75;39.34;101133.00;4950957;29;20147;-82
2022/07/31 08:06:14;;;;;;;3.40;3.10;;;;;;;29.23;38.95;101203.88;4950971;29;20485;-81
2022/07/31 08:08:41;;;;;;;5.78;3.63;;;;;;;29.22;38.86;101192.09;4951223;29;20114;-81
2022/07/31 08:11:08;;;;;;;4.18;3.03;;;;;;;29.35;38.28;101199.97;4951283;29;20058;-81
2022/07/31 08:13:38;;;;;;;4.35;3.83;;;;;;;28.83;38.01;101095.44;4951192;29;20078;-81
2022/07/31 08:16:06;;;;;;;4.25;3.10;;;;;;;29.55;37.99;101202.22;4951071;29;20066;-80
2022/07/31 08:18:33;;;;;;;8.98;3.45;;;;;;;29.66;37.38;101199.66;4951842;28;20102;-81
2022/07/31 08:20:59;;;;;;;3.58;3.10;;;;;;;29.69;37.43;101191.81;4950966;29;20513;-80
2022/07/31 08:23:26;;;;;;;4.15;3.40;;;;;;;29.46;37.35;101154.47;4952050;29;20114;-82
2022/07/31 08:25:53;;;;;;;3.88;3.08;;;;;;;29.87;36.61;101170.72;4950951;29;20051;-82
2022/07/31 08:28:23;;;;;;;5.03;3.17;;;;;;;30.06;37.06;101196.75;4951637;29;20047;-81
2022/07/31 08:30:51;;;;;;;3.80;2.90;;;;;;;29.86;37.03;101166.31;4968090;28;20051;-83
2022/07/31 08:33:18;;;;;;;3.55;3.20;;;;;;;30.19;36.38;101201.84;4951166;29;20142;-80
2022/07/31 08:35:44;;;;;;;6.15;2.90;;;;;;;30.15;36.34;101199.88;4950921;29;20568;-82
2022/07/31 08:38:17;;;;;;;4.13;3.53;;;;;;;29.74;36.35;101128.16;4951076;29;20106;-82
2022/07/31 08:40:45;;;;;;;4.85;3.33;;;;;;;30.26;36.15;101200.88;4950980;29;20066;-81
2022/07/31 08:43:12;;;;;;;6.32;3.40;;;;;;;30.23;36.60;101196.69;4951043;29;20110;-82
2022/07/31 08:46:01;;;;;;;5.57;2.95;;;;;;;30.33;36.85;101210.56;4951790;29;20446;-81
2022/07/31 08:48:32;;;;;;;4.47;2.95;;;;;;;30.34;36.26;101190.31;4956576;29;20287;-82
2022/07/31 08:51:02;;;;;;;4.97;2.73;;;;;;;30.22;36.29;101165.75;4961191;28;20156;-83
2022/07/31 08:53:31;;;;;;;3.47;3.07;;;;;;;30.48;35.75;101198.97;4955926;28;20054;-83
2022/07/31 08:55:59;;;;;;;4.32;2.88;;;;;;;30.28;36.20;101150.25;4950330;29;20315;-81
2022/07/31 08:58:26;;;;;;;3.85;2.53;;;;;;;30.53;35.62;101176.28;4966794;28;20055;-81
2022/07/31 09:00:53;;;;;;;5.55;3.13;;;;;;;30.20;35.63;101095.91;4950790;29;20069;-81
2022/07/31 09:03:20;;;;;;;5.35;2.90;;;;;;;30.78;35.17;101173.00;4950630;29;20074;-81
2022/07/31 09:05:47;;;;;;;3.95;3.00;;;;;;;31.05;34.85;101184.03;4966696;28;20055;-82
2022/07/31 09:08:14;;;;;;;2.72;2.53;;;;;;;31.36;34.86;101204.31;4950397;29;20071;-82
2022/07/31 09:10:41;;;;;;;4.95;2.90;;;;;;;31.45;34.62;101201.94;4953099;29;20502;-83
2022/07/31 09:13:17;;;;;;;6.10;3.30;;;;;;;31.21;34.66;101172.09;4952959;29;20044;-80
2022/07/31 09:15:44;;;;;;;2.92;2.72;;;;;;;31.34;34.64;101172.75;4955198;29;20507;-80
2022/07/31 09:18:17;;;;;;;4.97;3.03;;;;;;;30.96;34.74;101111.56;4955706;28;20103;-80
2022/07/31 09:20:55;;;;;;;3.80;2.55;;;;;;;31.55;34.65;101196.53;4969998;28;20058;-80
2022/07/31 09:23:23;;;;;;;4.55;2.95;;;;;;;31.64;34.27;101202.38;4952293;29;20089;-78
2022/07/31 09:25:55;;;;;;;6.38;2.97;;;;;;;31.64;34.09;101194.97;4951289;29;20125;-80
2022/07/31 09:28:39;;;;;;;4.03;2.85;;;;;;;31.75;32.49;101195.03;4949756;29;20071;-80
2022/07/31 09:31:09;;;;;;;11.25;3.42;;;;;;;31.77;33.04;101185.44;4949584;29;20051;-80
2022/07/31 09:33:39;;;;;;;5.97;3.70;;;;;;;32.00;33.29;101187.00;4949563;29;20446;-80
2022/07/31 09:36:12;;;;;;;4.90;2.70;;;;;;;32.06;32.72;101177.69;4949057;29;20047;-80
2022/07/31 09:38:41;;;;;;;6.15;2.67;;;;;;;32.27;32.85;101197.03;4949308;29;20039;-80
2022/07/31 09:41:20;;;;;;;2.97;2.65;;;;;;;31.81;31.89;101130.88;4949371;29;20047;-79
2022/07/31 09:44:07;;;;;;;2.83;2.63;;;;;;;32.21;32.31;101187.09;4950106;29;20094;-80
2022/07/31 09:46:39;;;;;;;3.67;2.35;;;;;;;32.43;31.72;101178.69;4949623;29;20138;-80
2022/07/31 09:49:06;;;;;;;4.32;2.70;;;;;;;32.34;32.16;101145.44;4949967;29;20059;-80
2022/07/31 09:51:41;;;;;;;5.20;2.70;;;;;;;32.57;31.51;101155.13;4949969;29;20043;-79
2022/07/31 09:54:24;;;;;;;2.90;2.25;;;;;;;32.65;31.49;101131.78;4950998;28;20057;-80
2022/07/31 09:56:51;;;;;;;2.88;2.65;;;;;;;33.07;30.99;101172.06;4949530;29;20177;-80
2022/07/31 09:59:18;;;;;;;2.80;2.60;;;;;;;32.74;30.74;101105.44;4948925;29;20054;-79
2022/07/31 10:01:50;;;;;;;6.47;3.13;;;;;;;33.29;31.68;101169.84;4963919;28;20133;-81
2022/07/31 10:04:20;;;;;;;4.13;3.10;;;;;;;33.12;30.93;101148.13;4948485;28;20402;-81
2022/07/31 10:06:49;;;;;;;6.65;2.90;;;;;;;33.19;31.49;101153.34;4965020;28;20103;-81
2022/07/31 10:09:18;;;;;;;5.07;3.08;;;;;;;33.33;31.04;101162.72;4949403;29;20425;-79
2022/07/31 10:11:48;;;;;;;5.77;2.90;;;;;;;33.12;30.92;101119.78;4949752;29;20051;-80
2022/07/31 10:14:26;;;;;;;3.30;2.65;;;;;;;33.54;30.42;101154.44;4949971;29;20047;-80
2022/07/31 10:16:56;;;;;;;3.35;2.83;;;;;;;33.78;30.35;101143.69;4949607;29;20102;-80
2022/07/31 10:19:26;;;;;;;3.20;2.88;;;;;;;33.91;29.66;101137.59;4949123;29;20505;-80
2022/07/31 10:21:58;;;;;;;4.20;2.90;;;;;;;34.21;28.90;101153.22;4949602;29;20106;-80
2022/07/31 10:24:27;;;;;;;2.78;2.58;;;;;;;33.93;28.98;101096.00;4949092;29;20133;-81
2022/07/31 10:26:58;;;;;;;4.20;2.78;;;;;;;34.26;28.65;101133.91;4951026;28;20090;-81
2022/07/31 10:29:27;;;;;;;4.97;2.35;;;;;;;34.47;28.30;101158.63;4949170;29;20490;-81
2022/07/31 10:31:59;;;;;;;3.35;2.72;;;;;;;34.02;28.39;101077.78;4949996;29;20083;-80
2022/07/31 10:34:27;;;;;;;6.20;2.58;;;;;;;34.59;28.52;101147.22;4953223;29;20127;-81
2022/07/31 10:37:01;;;;;;;3.05;2.42;;;;;;;34.74;28.08;101143.63;4955454;29;20406;-80
2022/07/31 10:39:48;;;;;;;2.80;2.38;;;;;;;34.84;27.72;101119.53;4960265;29;20047;-80
2022/07/31 10:42:36;;;;;;;2.40;2.20;;;;;;;35.34;26.94;101151.72;4961222;29;20055;-82
2022/07/31 10:45:07;;;;;;;2.50;2.28;;;;;;;35.41;27.42;101147.50;4951152;28;20395;-81
2022/07/31 10:47:34;;;;;;;2.95;2.17;;;;;;;35.73;26.70;101143.34;4950341;29;20051;-81
2022/07/31 10:50:01;;;;;;;1.90;1.75;;;;;;;35.60;26.35;101110.91;4955243;29;20090;-80
2022/07/31 10:52:33;;;;;;;3.15;2.00;;;;;;;35.61;25.05;101145.69;4963901;29;20054;-82
2022/07/31 10:55:01;;;;;;;2.08;1.85;;;;;;;35.18;25.38;101071.84;4953706;29;20098;-80
2022/07/31 10:57:31;;;;;;;4.82;1.80;;;;;;;35.37;25.57;101099.53;4949216;29;20074;-81
2022/07/31 11:00:12;;;;;;;2.80;2.60;;;;;;;35.24;24.30;101069.84;4948773;29;20481;-81
2022/07/31 11:02:39;;;;;;;2.72;2.28;;;;;;;35.94;24.41;101146.72;4947990;29;20079;-81
2022/07/31 11:05:16;;;;;;;2.30;2.10;;;;;;;36.13;24.93;101141.28;4948615;29;20085;-81
2022/07/31 11:07:46;;;;;;;2.13;1.92;;;;;;;36.07;24.02;101136.88;4949835;28;20047;-82
2022/07/31 11:10:15;;;;;;;;;;;;;;;35.96;23.15;101136.19;4950274;29;20072;-82
2022/07/31 11:12:43;;;;;;;2.92;1.98;;;;;;;36.01;23.66;101088.34;4966252;28;20077;-82
2022/07/31 11:15:23;;;;;;;3.42;2.53;;;;;;;35.82;23.98;101031.13;4949511;29;20118;-82
2022/07/31 11:17:51;;;;;;;3.25;1.98;;;;;;;36.24;24.18;101059.03;4952490;29;20559;-81
2022/07/31 11:20:38;;;;;;;3.05;2.30;;;;;;;36.57;24.96;101093.16;4952860;29;20094;-82
2022/07/31 11:23:07;;;;;;;2.05;1.95;;;;;;;36.71;24.58;101088.50;4949245;29;20052;-80
2022/07/31 11:25:36;;;;;;;2.00;1.90;;;;;;;36.90;24.35;101093.19;4933674;29;20055;-79
2022/07/31 11:28:10;;;;;;;2.03;1.92;;;;;;;36.89;23.56;101063.88;4933532;29;20134;-82
2022/07/31 11:31:06;;;;;;;2.67;2.05;;;;;;;37.40;22.89;101108.09;4950043;29;20084;-82
2022/07/31 11:33:45;;;;;;;8.60;2.08;;;;;;;37.53;23.07;101098.22;4956750;29;20058;-81
2022/07/31 11:36:16;;;;;;;2.22;2.00;;;;;;;37.73;22.57;101104.47;4943307;29;20063;-82